createdAt,value
2023-05-01T00:00:37.712Z,99.90
2023-05-01T00:03:15.987Z,99.90
2023-05-01T00:05:44.748Z,99.90
2023-05-01T00:08:12.718Z,99.90
2023-05-01T00:10:40.745Z,99.90
2023-05-01T00:13:10.143Z,99.90
2023-05-01T00:15:42.348Z,99.90
2023-05-01T00:18:10.216Z,99.90
2023-05-01T00:20:38.295Z,99.90
2023-05-01T00:23:06.953Z,99.90
2023-05-01T00:25:35.151Z,99.90
2023-05-01T00:28:05.641Z,99.90
2023-05-01T00:30:34.641Z,99.90
2023-05-01T00:33:02.625Z,99.90
2023-05-01T00:35:31.160Z,99.90
2023-05-01T00:37:59.058Z,99.90
2023-05-01T00:40:28.009Z,99.90
2023-05-01T00:42:56.786Z,99.90
2023-05-01T00:45:25.771Z,99.90
2023-05-01T00:47:53.666Z,99.90
2023-05-01T00:50:22.181Z,99.90
2023-05-01T00:52:50.012Z,99.90
2023-05-01T00:55:20.455Z,99.90
2023-05-01T00:57:50.151Z,99.90
2023-05-01T01:00:19.552Z,99.90
2023-05-01T01:02:47.457Z,99.90
2023-05-01T01:05:16.996Z,99.90
2023-05-01T01:08:05.715Z,99.90
2023-05-01T01:10:45.385Z,99.90
2023-05-01T01:13:35.344Z,99.90
2023-05-01T01:16:13.928Z,99.90
2023-05-01T01:19:01.535Z,99.90
2023-05-01T01:21:36.855Z,99.90
2023-05-01T01:24:19.625Z,99.90
2023-05-01T01:27:16.426Z,99.90
2023-05-01T01:30:03.524Z,99.90
2023-05-01T01:32:51.136Z,99.90
2023-05-01T01:35:21.261Z,99.90
2023-05-01T01:38:21.005Z,99.90
2023-05-01T01:41:28.579Z,99.90
2023-05-01T01:44:12.832Z,99.90
2023-05-01T01:46:42.818Z,99.90
2023-05-01T01:49:18.999Z,99.90
2023-05-01T01:51:50.586Z,99.90
2023-05-01T01:54:26.631Z,99.90
2023-05-01T01:56:56.840Z,99.90
2023-05-01T01:59:25.983Z,99.90
2023-05-01T02:01:56.295Z,99.90
2023-05-01T02:04:26.038Z,99.90
2023-05-01T02:06:57.244Z,99.90
2023-05-01T02:09:28.020Z,99.90
2023-05-01T02:11:56.167Z,99.90
2023-05-01T02:14:27.029Z,99.90
2023-05-01T02:16:57.407Z,99.90
2023-05-01T02:19:26.835Z,99.90
2023-05-01T02:21:57.633Z,99.90
2023-05-01T02:24:27.259Z,99.90
2023-05-01T02:27:01.391Z,99.90
2023-05-01T02:29:29.590Z,99.90
2023-05-01T02:31:57.503Z,99.90
2023-05-01T02:34:25.754Z,99.90
2023-05-01T02:36:53.983Z,99.90
2023-05-01T02:39:22.753Z,99.90
2023-05-01T02:41:53.417Z,99.90
2023-05-01T02:44:23.962Z,99.90
2023-05-01T02:46:53.605Z,99.90
2023-05-01T02:49:23.661Z,99.90
2023-05-01T02:51:52.123Z,99.90
2023-05-01T02:54:20.911Z,99.90
2023-05-01T02:56:48.702Z,99.90
2023-05-01T02:59:16.770Z,99.90
2023-05-01T03:01:44.720Z,99.90
2023-05-01T03:04:12.931Z,99.90
2023-05-01T03:06:40.790Z,99.90
2023-05-01T03:09:08.879Z,99.90
2023-05-01T03:11:37.652Z,99.90
2023-05-01T03:14:06.146Z,99.90
2023-05-01T03:16:34.121Z,99.90
2023-05-01T03:19:02.838Z,99.90
2023-05-01T03:21:32.036Z,99.90
2023-05-01T03:24:03.208Z,99.90
2023-05-01T03:26:33.052Z,99.90
2023-05-01T03:29:01.378Z,99.90
2023-05-01T03:31:29.377Z,99.90
2023-05-01T03:33:59.819Z,99.90
2023-05-01T03:36:28.395Z,99.90
2023-05-01T03:38:57.238Z,99.90
2023-05-01T03:41:43.796Z,99.90
2023-05-01T03:44:28.370Z,99.90
2023-05-01T03:46:56.148Z,99.90
2023-05-01T03:49:28.935Z,99.90
2023-05-01T03:51:56.891Z,99.90
2023-05-01T03:54:25.918Z,99.90
2023-05-01T03:57:05.719Z,99.90
2023-05-01T03:59:33.845Z,99.90
2023-05-01T04:02:02.016Z,99.90
2023-05-01T04:04:33.366Z,99.90
2023-05-01T04:07:02.077Z,99.90
2023-05-01T04:09:30.351Z,99.90
2023-05-01T04:11:58.978Z,99.90
2023-05-01T04:14:26.987Z,99.90
2023-05-01T04:16:55.332Z,99.90
2023-05-01T04:19:24.147Z,99.90
2023-05-01T04:21:57.060Z,99.90
2023-05-01T04:24:25.346Z,99.90
2023-05-01T04:26:53.038Z,99.90
2023-05-01T04:29:21.162Z,99.90
2023-05-01T04:31:49.381Z,99.90
2023-05-01T04:34:17.883Z,99.90
2023-05-01T04:36:45.732Z,99.90
2023-05-01T04:39:13.763Z,99.90
2023-05-01T04:41:42.031Z,99.90
2023-05-01T04:44:10.468Z,99.90
2023-05-01T04:46:38.252Z,99.90
2023-05-01T04:49:06.335Z,99.90
2023-05-01T04:51:34.108Z,99.90
2023-05-01T04:54:04.765Z,99.90
2023-05-01T04:56:37.518Z,99.90
2023-05-01T04:59:06.522Z,99.90
2023-05-01T05:01:34.433Z,99.90
2023-05-01T05:04:03.029Z,99.90
2023-05-01T05:06:32.703Z,99.90
2023-05-01T05:09:00.870Z,99.90
2023-05-01T05:11:28.823Z,99.90
2023-05-01T05:13:59.719Z,99.90
2023-05-01T05:16:28.016Z,99.90
2023-05-01T05:18:57.748Z,99.90
2023-05-01T05:21:28.144Z,99.90
2023-05-01T05:23:58.951Z,99.90
2023-05-01T05:26:29.095Z,99.90
2023-05-01T05:29:00.021Z,99.90
2023-05-01T05:31:28.180Z,99.90
2023-05-01T05:33:56.495Z,99.90
2023-05-01T05:36:25.131Z,99.90
2023-05-01T05:38:53.945Z,99.90
2023-05-01T05:41:24.522Z,99.90
2023-05-01T05:43:57.176Z,99.90
2023-05-01T05:46:25.715Z,99.90
2023-05-01T05:48:53.713Z,99.90
2023-05-01T05:51:21.550Z,99.90
2023-05-01T05:53:50.029Z,99.90
2023-05-01T05:56:17.968Z,99.90
2023-05-01T05:58:46.678Z,99.90
2023-05-01T06:01:15.155Z,99.90
2023-05-01T06:03:43.816Z,99.90
2023-05-01T06:06:11.813Z,99.90
2023-05-01T06:08:39.965Z,99.90
2023-05-01T06:11:11.508Z,99.90
2023-05-01T06:13:42.320Z,99.90
2023-05-01T06:16:10.373Z,99.90
2023-05-01T06:18:38.469Z,99.90
2023-05-01T06:21:06.583Z,99.90
2023-05-01T06:23:35.087Z,99.90
2023-05-01T06:26:21.729Z,99.90
2023-05-01T06:28:50.090Z,99.90
2023-05-01T06:31:18.045Z,99.90
2023-05-01T06:33:51.430Z,99.90
2023-05-01T06:36:33.010Z,99.90
2023-05-01T06:39:01.128Z,99.90
2023-05-01T06:41:28.999Z,99.90
2023-05-01T06:43:58.571Z,99.90
2023-05-01T06:46:26.459Z,99.90
2023-05-01T06:48:54.552Z,99.90
2023-05-01T06:51:22.371Z,99.90
2023-05-01T06:53:50.344Z,99.90
2023-05-01T06:56:18.413Z,99.90
2023-05-01T06:58:46.424Z,99.90
2023-05-01T07:01:14.291Z,99.90
2023-05-01T07:03:42.422Z,99.90
2023-05-01T07:06:10.450Z,99.90
2023-05-01T07:08:38.602Z,99.90
2023-05-01T07:11:07.652Z,99.90
2023-05-01T07:13:35.761Z,99.90
2023-05-01T07:16:07.180Z,99.90
2023-05-01T07:18:35.606Z,99.90
2023-05-01T07:21:05.844Z,99.90
2023-05-01T07:23:33.847Z,99.90
2023-05-01T07:26:01.726Z,99.90
2023-05-01T07:28:30.150Z,99.90
2023-05-01T07:30:57.905Z,99.90
2023-05-01T07:33:26.185Z,99.90
2023-05-01T07:35:53.981Z,99.90
2023-05-01T07:38:22.362Z,99.90
2023-05-01T07:40:53.605Z,99.90
2023-05-01T07:43:21.620Z,99.90
2023-05-01T07:46:00.826Z,99.90
2023-05-01T07:48:29.343Z,99.90
2023-05-01T07:50:57.167Z,99.90
2023-05-01T07:53:25.399Z,99.90
2023-05-01T07:55:53.201Z,99.90
2023-05-01T07:58:21.385Z,99.90
2023-05-01T08:00:49.142Z,99.90
2023-05-01T08:03:17.256Z,99.90
2023-05-01T08:05:45.146Z,99.90
2023-05-01T08:08:19.282Z,99.90
2023-05-01T08:10:48.004Z,99.90
2023-05-01T08:13:16.122Z,99.90
2023-05-01T08:15:46.036Z,99.90
2023-05-01T08:18:19.725Z,99.90
2023-05-01T08:20:48.400Z,99.90
2023-05-01T08:23:17.385Z,99.90
2023-05-01T08:25:47.029Z,99.90
2023-05-01T08:28:15.372Z,99.90
2023-05-01T08:30:45.902Z,99.90
2023-05-01T08:33:13.975Z,99.90
2023-05-01T08:35:44.093Z,99.90
2023-05-01T08:38:12.400Z,99.90
2023-05-01T08:40:43.965Z,99.90
2023-05-01T08:43:13.214Z,99.90
2023-05-01T08:45:44.079Z,99.90
2023-05-01T08:48:13.241Z,99.90
2023-05-01T08:50:47.028Z,99.90
2023-05-01T08:53:17.186Z,99.90
2023-05-01T08:55:49.144Z,99.90
2023-05-01T08:58:18.883Z,99.90
2023-05-01T09:00:47.783Z,99.90
2023-05-01T09:03:18.232Z,99.90
2023-05-01T09:05:47.080Z,99.90
2023-05-01T09:08:15.212Z,99.90
2023-05-01T09:10:47.137Z,99.90
2023-05-01T09:13:17.777Z,99.90
2023-05-01T09:15:45.739Z,99.90
2023-05-01T09:18:13.978Z,99.90
2023-05-01T09:20:42.088Z,99.90
2023-05-01T09:23:11.480Z,99.90
2023-05-01T09:25:41.634Z,99.90
2023-05-01T09:28:12.031Z,99.90
2023-05-01T09:30:40.746Z,99.90
2023-05-01T09:33:11.060Z,99.90
2023-05-01T09:35:53.515Z,99.90
2023-05-01T09:38:23.732Z,99.90
2023-05-01T09:40:53.791Z,99.70
2023-05-01T09:43:29.324Z,98.90
2023-05-01T09:46:15.598Z,97.70
2023-05-01T09:48:56.239Z,96.20
2023-05-01T09:51:33.124Z,95.80
2023-05-01T09:54:05.161Z,95.90
2023-05-01T09:56:49.861Z,95.80
2023-05-01T09:59:20.313Z,95.60
2023-05-01T10:01:50.505Z,95.90
2023-05-01T10:04:33.352Z,96.40
2023-05-01T10:07:14.127Z,97.00
2023-05-01T10:09:42.389Z,98.00
2023-05-01T10:12:10.253Z,99.10
2023-05-01T10:14:54.843Z,99.90
2023-05-01T10:17:23.502Z,99.90
2023-05-01T10:19:53.804Z,99.90
2023-05-01T10:22:21.935Z,99.10
2023-05-01T10:24:50.628Z,98.30
2023-05-01T10:27:19.912Z,97.40
2023-05-01T10:29:52.539Z,96.60
2023-05-01T10:32:21.317Z,96.50
2023-05-01T10:34:55.215Z,96.50
2023-05-01T10:37:28.633Z,96.50
2023-05-01T10:39:56.729Z,96.70
2023-05-01T10:42:24.444Z,96.50
2023-05-01T10:44:52.882Z,95.90
2023-05-01T10:47:31.337Z,95.00
2023-05-01T10:50:15.616Z,93.70
2023-05-01T10:53:12.165Z,92.60
2023-05-01T10:55:45.313Z,91.90
2023-05-01T10:58:36.766Z,91.40
2023-05-01T11:01:45.073Z,90.80
2023-05-01T11:04:22.315Z,89.70
2023-05-01T11:07:05.536Z,88.50
2023-05-01T11:09:43.049Z,86.70
2023-05-01T11:12:13.309Z,85.30
2023-05-01T11:15:03.652Z,84.00
2023-05-01T11:17:40.765Z,82.30
2023-05-01T11:20:13.681Z,80.70
2023-05-01T11:22:48.504Z,79.50
2023-05-01T11:25:21.330Z,78.00
2023-05-01T11:27:54.455Z,77.10
2023-05-01T11:30:22.514Z,76.50
2023-05-01T11:32:51.706Z,74.80
2023-05-01T11:35:28.660Z,73.50
2023-05-01T11:37:56.999Z,72.40
2023-05-01T11:40:28.885Z,71.80
2023-05-01T11:43:02.952Z,71.50
2023-05-01T11:45:31.637Z,71.10
2023-05-01T11:48:02.873Z,71.00
2023-05-01T11:50:33.908Z,70.40
2023-05-01T11:53:02.957Z,69.10
2023-05-01T11:55:35.174Z,67.20
2023-05-01T11:58:05.012Z,66.20
2023-05-01T12:00:38.205Z,64.90
2023-05-01T12:03:14.545Z,63.80
2023-05-01T12:05:45.031Z,63.90
2023-05-01T12:08:21.867Z,64.00
2023-05-01T12:10:56.211Z,63.90
2023-05-01T12:13:27.540Z,63.80
2023-05-01T12:15:59.862Z,63.90
2023-05-01T12:18:28.002Z,63.80
2023-05-01T12:20:56.173Z,63.10
2023-05-01T12:23:35.964Z,62.90
2023-05-01T12:26:20.177Z,62.70
2023-05-01T12:29:07.504Z,62.60
2023-05-01T12:31:36.612Z,63.00
2023-05-01T12:34:06.695Z,63.50
2023-05-01T12:36:36.439Z,63.90
2023-05-01T12:39:07.022Z,63.70
2023-05-01T12:41:45.731Z,63.30
2023-05-01T12:44:19.972Z,62.90
2023-05-01T12:46:56.613Z,62.70
2023-05-01T12:49:25.768Z,62.60
2023-05-01T12:51:55.582Z,62.60
2023-05-01T12:54:27.178Z,62.40
2023-05-01T12:57:11.840Z,62.50
2023-05-01T12:59:44.752Z,62.50
2023-05-01T13:02:16.026Z,63.00
2023-05-01T13:04:45.419Z,64.30
2023-05-01T13:07:17.777Z,65.80
2023-05-01T13:09:56.368Z,67.00
2023-05-01T13:12:28.523Z,67.80
2023-05-01T13:14:57.659Z,68.20
2023-05-01T13:17:30.377Z,67.70
2023-05-01T13:19:59.811Z,66.60
2023-05-01T13:22:38.024Z,65.50
2023-05-01T13:25:15.998Z,64.00
2023-05-01T13:27:52.394Z,62.80
2023-05-01T13:30:32.223Z,62.00
2023-05-01T13:33:00.678Z,61.00
2023-05-01T13:35:28.758Z,60.30
2023-05-01T13:37:56.502Z,59.60
2023-05-01T13:40:28.125Z,58.90
2023-05-01T13:42:58.089Z,58.20
2023-05-01T13:45:26.634Z,58.20
2023-05-01T13:47:55.428Z,58.30
2023-05-01T13:50:23.717Z,58.40
2023-05-01T13:52:51.460Z,58.20
2023-05-01T13:55:21.779Z,57.70
2023-05-01T13:57:50.039Z,57.00
2023-05-01T14:00:19.258Z,55.90
2023-05-01T14:02:49.099Z,55.40
2023-05-01T14:05:30.929Z,55.10
2023-05-01T14:07:59.482Z,54.50
2023-05-01T14:10:28.754Z,54.20
2023-05-01T14:12:58.941Z,54.40
2023-05-01T14:15:28.782Z,54.70
2023-05-01T14:17:58.901Z,55.00
2023-05-01T14:20:26.845Z,55.00
2023-05-01T14:22:54.880Z,54.50
2023-05-01T14:25:30.721Z,54.00
2023-05-01T14:28:01.145Z,53.50
2023-05-01T14:30:39.593Z,54.20
2023-05-01T14:33:12.332Z,53.30
2023-05-01T14:35:51.250Z,53.40
2023-05-01T14:38:24.166Z,53.10
2023-05-01T14:40:52.696Z,53.30
2023-05-01T14:43:24.290Z,53.40
2023-05-01T14:45:52.374Z,53.70
2023-05-01T14:48:24.426Z,54.00
2023-05-01T14:50:54.775Z,54.30
2023-05-01T14:53:23.352Z,54.70
2023-05-01T14:55:52.040Z,55.20
2023-05-01T14:58:20.131Z,55.50
2023-05-01T15:00:47.883Z,55.90
2023-05-01T15:03:15.996Z,56.30
2023-05-01T15:05:46.113Z,56.70
2023-05-01T15:08:14.206Z,56.90
2023-05-01T15:10:42.391Z,57.10
2023-05-01T15:13:10.740Z,57.30
2023-05-01T15:15:38.505Z,57.60
2023-05-01T15:18:07.361Z,57.60
2023-05-01T15:20:35.249Z,57.80
2023-05-01T15:23:03.318Z,57.90
2023-05-01T15:25:31.115Z,58.00
2023-05-01T15:27:59.192Z,58.20
2023-05-01T15:30:27.082Z,57.50
2023-05-01T15:32:55.940Z,57.00
2023-05-01T15:35:24.204Z,56.50
2023-05-01T15:37:56.465Z,56.30
2023-05-01T15:40:24.333Z,56.00
2023-05-01T15:42:52.421Z,55.90
2023-05-01T15:45:20.600Z,55.80
2023-05-01T15:47:48.735Z,55.60
2023-05-01T15:50:16.600Z,55.50
2023-05-01T15:52:44.710Z,55.50
2023-05-01T15:55:12.620Z,55.50
2023-05-01T15:57:47.200Z,55.60
2023-05-01T16:00:16.776Z,55.70
2023-05-01T16:02:44.948Z,55.80
2023-05-01T16:05:19.413Z,55.70
2023-05-01T16:07:53.599Z,55.40
2023-05-01T16:10:21.925Z,55.10
2023-05-01T16:12:51.131Z,54.70
2023-05-01T16:15:19.188Z,54.70
2023-05-01T16:17:47.900Z,54.50
2023-05-01T16:20:17.234Z,54.50
2023-05-01T16:22:47.950Z,54.40
2023-05-01T16:25:16.701Z,54.20
2023-05-01T16:27:46.177Z,54.20
2023-05-01T16:30:14.817Z,54.10
2023-05-01T16:32:44.715Z,53.90
2023-05-01T16:35:20.071Z,54.00
2023-05-01T16:37:48.061Z,54.20
2023-05-01T16:40:16.887Z,54.60
2023-05-01T16:42:54.896Z,54.80
2023-05-01T16:45:22.694Z,55.10
2023-05-01T16:47:51.574Z,55.40
2023-05-01T16:50:22.236Z,55.70
2023-05-01T16:52:55.097Z,55.70
2023-05-01T16:55:23.219Z,55.80
2023-05-01T16:57:51.383Z,55.90
2023-05-01T17:00:19.679Z,55.90
2023-05-01T17:02:49.954Z,55.60
2023-05-01T17:05:17.908Z,55.50
2023-05-01T17:07:45.938Z,55.40
2023-05-01T17:10:13.725Z,55.30
2023-05-01T17:12:44.569Z,55.10
2023-05-01T17:15:12.510Z,54.80
2023-05-01T17:17:40.688Z,54.70
2023-05-01T17:20:09.147Z,54.50
2023-05-01T17:22:37.156Z,54.40
2023-05-01T17:25:05.410Z,54.50
2023-05-01T17:27:37.637Z,54.40
2023-05-01T17:30:06.066Z,54.60
2023-05-01T17:32:37.367Z,54.70
2023-05-01T17:35:06.315Z,54.80
2023-05-01T17:37:34.334Z,55.00
2023-05-01T17:40:02.555Z,55.10
2023-05-01T17:42:30.818Z,55.90
2023-05-01T17:47:28.200Z,54.60
2023-05-01T17:49:56.530Z,55.30
2023-05-01T17:52:26.455Z,55.40
2023-05-01T17:54:54.518Z,55.40
2023-05-01T17:57:24.502Z,55.60
2023-05-01T17:59:52.576Z,55.90
2023-05-01T18:02:20.477Z,56.00
2023-05-01T18:04:50.349Z,56.10
2023-05-01T18:07:18.271Z,56.20
2023-05-01T18:09:46.409Z,56.20
2023-05-01T18:12:14.216Z,56.20
2023-05-01T18:14:42.267Z,56.30
2023-05-01T18:17:10.263Z,56.40
2023-05-01T18:19:40.545Z,56.50
2023-05-01T18:22:08.681Z,56.60
2023-05-01T18:24:37.065Z,56.80
2023-05-01T18:27:07.448Z,57.00
2023-05-01T18:29:35.855Z,57.30
2023-05-01T18:32:03.962Z,57.50
2023-05-01T18:34:32.034Z,57.60
2023-05-01T18:36:59.864Z,57.80
2023-05-01T18:39:27.809Z,58.00
2023-05-01T18:41:55.669Z,58.40
2023-05-01T18:44:23.838Z,58.90
2023-05-01T18:46:51.647Z,59.20
2023-05-01T18:49:23.483Z,59.40
2023-05-01T18:51:51.949Z,59.20
2023-05-01T18:54:19.974Z,59.30
2023-05-01T18:56:47.669Z,59.30
2023-05-01T18:59:17.136Z,59.30
2023-05-01T19:01:45.457Z,59.30
2023-05-01T19:04:16.877Z,59.50
2023-05-01T19:06:44.637Z,59.60
2023-05-01T19:09:12.659Z,59.80
2023-05-01T19:11:42.798Z,60.80
2023-05-01T19:14:13.095Z,60.10
2023-05-01T19:16:41.079Z,60.30
2023-05-01T19:19:09.576Z,60.60
2023-05-01T19:21:37.437Z,60.90
2023-05-01T19:24:05.737Z,61.00
2023-05-01T19:26:33.778Z,61.10
2023-05-01T19:29:01.822Z,61.10
2023-05-01T19:31:32.303Z,61.30
2023-05-01T19:34:00.734Z,61.60
2023-05-01T19:36:31.608Z,61.80
2023-05-01T19:38:59.733Z,61.90
2023-05-01T19:41:27.504Z,62.20
2023-05-01T19:43:55.631Z,62.50
2023-05-01T19:46:23.598Z,62.70
2023-05-01T19:48:51.852Z,62.90
2023-05-01T19:51:19.662Z,63.20
2023-05-01T19:53:50.101Z,63.50
2023-05-01T19:56:17.943Z,63.70
2023-05-01T19:58:45.978Z,64.00
2023-05-01T20:01:13.820Z,64.30
2023-05-01T20:03:42.047Z,64.60
2023-05-01T20:06:09.803Z,64.80
2023-05-01T20:08:37.953Z,65.00
2023-05-01T20:11:05.810Z,65.40
2023-05-01T20:13:34.238Z,65.60
2023-05-01T20:16:03.002Z,65.90
2023-05-01T20:18:30.984Z,67.00
2023-05-01T20:20:58.846Z,66.40
2023-05-01T20:23:27.008Z,67.40
2023-05-01T20:25:55.058Z,66.90
2023-05-01T20:28:23.515Z,67.30
2023-05-01T20:30:51.338Z,67.40
2023-05-01T20:33:19.265Z,67.60
2023-05-01T20:35:47.609Z,67.90
2023-05-01T20:38:15.783Z,68.30
2023-05-01T20:40:43.554Z,68.60
2023-05-01T20:43:11.779Z,68.90
2023-05-01T20:45:39.883Z,69.20
2023-05-01T20:48:08.267Z,69.20
2023-05-01T20:50:36.444Z,69.50
2023-05-01T20:53:04.739Z,69.90
2023-05-01T20:55:32.763Z,70.20
2023-05-01T20:58:01.309Z,70.50
2023-05-01T21:00:29.162Z,70.80
2023-05-01T21:02:59.940Z,70.90
2023-05-01T21:05:28.441Z,71.20
2023-05-01T21:07:58.299Z,71.50
2023-05-01T21:12:42.732Z,71.10
2023-05-01T21:17:36.321Z,70.80
2023-05-01T21:20:10.885Z,71.50
2023-05-01T21:22:41.719Z,71.60
2023-05-01T21:25:10.197Z,71.50
2023-05-01T21:27:46.619Z,71.50
2023-05-01T21:30:18.019Z,71.60
2023-05-01T21:32:46.190Z,71.70
2023-05-01T21:35:17.258Z,72.00
2023-05-01T21:40:14.482Z,71.50
2023-05-01T21:42:42.936Z,72.30
2023-05-01T21:45:13.113Z,72.40
2023-05-01T21:47:52.949Z,72.70
2023-05-01T21:50:21.550Z,72.90
2023-05-01T21:52:50.542Z,72.90
2023-05-01T21:55:22.296Z,73.10
2023-05-01T21:57:50.583Z,73.20
2023-05-01T22:00:19.585Z,73.40
2023-05-01T22:02:49.864Z,73.80
2023-05-01T22:05:22.986Z,74.40
2023-05-01T22:07:52.177Z,74.70
2023-05-01T22:10:20.306Z,75.10
2023-05-01T22:12:50.686Z,75.50
2023-05-01T22:15:18.573Z,75.90
2023-05-01T22:17:46.768Z,76.30
2023-05-01T22:20:14.604Z,76.70
2023-05-01T22:22:43.183Z,77.00
2023-05-01T22:25:14.606Z,77.30
2023-05-01T22:27:42.573Z,77.90
2023-05-01T22:30:11.276Z,78.30
2023-05-01T22:32:39.495Z,78.60
2023-05-01T22:35:08.912Z,78.90
2023-05-01T22:37:37.190Z,79.40
2023-05-01T22:40:05.713Z,80.00
2023-05-01T22:42:33.721Z,80.60
2023-05-01T22:45:01.572Z,81.40
2023-05-01T22:47:29.773Z,82.20
2023-05-01T22:49:57.770Z,82.90
2023-05-01T22:52:26.046Z,83.70
2023-05-01T22:54:53.777Z,84.60
2023-05-01T22:57:24.101Z,85.50
2023-05-01T22:59:52.058Z,86.50
2023-05-01T23:02:20.322Z,87.70
2023-05-01T23:04:48.097Z,89.20
2023-05-01T23:07:16.119Z,90.30
2023-05-01T23:09:44.398Z,91.00
2023-05-01T23:12:18.467Z,91.60
2023-05-01T23:14:47.056Z,92.20
2023-05-01T23:17:15.549Z,92.70
2023-05-01T23:19:43.793Z,93.20
2023-05-01T23:22:15.107Z,93.80
2023-05-01T23:24:49.763Z,94.40
2023-05-01T23:27:19.203Z,95.10
2023-05-01T23:29:58.055Z,95.60
2023-05-01T23:32:29.329Z,96.40
2023-05-01T23:35:14.280Z,97.00
2023-05-01T23:37:42.517Z,97.80
2023-05-01T23:40:10.609Z,98.20
2023-05-01T23:42:39.640Z,98.80
2023-05-01T23:45:09.388Z,99.40
2023-05-01T23:47:38.822Z,99.80
2023-05-01T23:50:07.563Z,99.90
2023-05-01T23:52:35.884Z,99.90
2023-05-01T23:55:03.809Z,99.90
2023-05-01T23:57:31.842Z,99.90
2023-05-01T23:59:59.764Z,99.90
